createdAt,value
2023-05-19T00:01:11.521Z,4.20
2023-05-19T00:04:19.149Z,4.90
2023-05-19T00:51:34.578Z,5.22
2023-05-19T00:54:56.744Z,4.60
2023-05-19T00:58:04.403Z,5.03
2023-05-19T01:01:19.071Z,4.47
2023-05-19T01:05:18.002Z,4.72
2023-05-19T02:11:43.726Z,5.20
2023-05-19T03:06:03.676Z,5.85
2023-05-19T03:09:08.467Z,5.57
2023-05-19T03:12:13.105Z,5.47
2023-05-19T03:15:18.716Z,5.50
2023-05-19T03:18:24.704Z,5.32
2023-05-19T03:21:29.013Z,5.57
2023-05-19T03:24:33.358Z,5.72
2023-05-19T03:29:55.883Z,5.85
2023-05-19T03:38:46.586Z,6.10
2023-05-19T03:42:42.382Z,5.25
2023-05-19T03:50:23.698Z,5.50
2023-05-19T03:53:39.047Z,6.03
2023-05-19T04:01:20.133Z,7.22
2023-05-19T04:14:59.412Z,6.50
2023-05-19T05:15:23.973Z,8.13
2023-05-19T08:31:21.729Z,4.47
2023-05-19T09:16:36.443Z,3.13
2023-05-19T09:20:37.449Z,2.45
2023-05-19T09:29:10.578Z,2.28
2023-05-19T09:33:18.625Z,2.35
2023-05-19T09:45:33.741Z,2.90
2023-05-19T09:49:34.286Z,2.25
2023-05-19T09:54:15.996Z,2.20
2023-05-19T10:02:18.210Z,2.60
2023-05-19T10:05:23.726Z,2.50
2023-05-19T10:08:30.589Z,2.17
2023-05-19T10:11:35.150Z,1.90
2023-05-19T10:14:43.226Z,2.60
2023-05-19T10:17:56.727Z,2.40
2023-05-19T10:21:20.327Z,2.20
2023-05-19T10:24:28.409Z,2.22
2023-05-19T10:27:46.942Z,2.03
2023-05-19T10:31:06.236Z,2.38
2023-05-19T10:34:50.603Z,2.40
2023-05-19T10:42:16.004Z,1.70
2023-05-19T10:45:30.290Z,1.90
2023-05-19T10:48:40.043Z,3.00
2023-05-19T10:51:49.107Z,1.83
2023-05-19T10:54:54.961Z,2.15
2023-05-19T10:58:00.503Z,2.22
2023-05-19T11:01:19.629Z,2.15
2023-05-19T11:04:50.129Z,1.70
2023-05-19T11:08:04.813Z,1.80
2023-05-19T11:11:17.679Z,1.83
2023-05-19T11:14:26.643Z,1.67
2023-05-19T11:17:31.799Z,1.70
2023-05-19T11:20:39.461Z,2.00
2023-05-19T11:23:44.059Z,1.60
2023-05-19T11:26:48.896Z,1.90
2023-05-19T11:29:59.295Z,2.22
2023-05-19T11:33:04.802Z,1.88
2023-05-19T11:36:11.043Z,2.13
2023-05-19T11:39:16.676Z,1.45
2023-05-19T11:42:21.314Z,1.98
2023-05-19T11:48:38.216Z,1.70
2023-05-19T11:51:44.656Z,1.83
2023-05-19T11:54:50.226Z,1.35
2023-05-19T11:58:08.649Z,1.98
2023-05-19T12:01:13.757Z,1.73
2023-05-19T12:04:19.675Z,1.70
2023-05-19T12:07:26.076Z,1.98
2023-05-19T12:10:33.893Z,1.40
2023-05-19T12:13:38.649Z,1.60
2023-05-19T12:16:43.601Z,1.95
2023-05-19T12:19:50.335Z,1.70
2023-05-19T12:22:58.489Z,2.30
2023-05-19T12:26:11.624Z,1.95
2023-05-19T12:29:16.211Z,1.52
2023-05-19T12:32:28.968Z,1.65
2023-05-19T12:35:37.519Z,2.05
2023-05-19T12:38:44.040Z,2.10
2023-05-19T12:41:54.122Z,2.17
2023-05-19T12:45:01.532Z,1.85
2023-05-19T12:48:17.336Z,1.95
2023-05-19T12:51:23.960Z,1.30
2023-05-19T12:54:33.932Z,2.17
2023-05-19T12:57:45.291Z,1.88
2023-05-19T13:00:50.547Z,2.38
2023-05-19T13:03:56.904Z,1.70
2023-05-19T13:07:02.847Z,1.65
2023-05-19T13:10:09.573Z,1.88
2023-05-19T13:13:18.198Z,1.80
2023-05-19T13:16:22.963Z,1.60
2023-05-19T13:19:30.266Z,1.80
2023-05-19T13:22:38.202Z,1.60
2023-05-19T13:25:43.871Z,1.85
2023-05-19T13:28:48.905Z,1.60
2023-05-19T13:31:53.036Z,1.70
2023-05-19T13:38:05.018Z,1.73
2023-05-19T13:41:13.729Z,1.90
2023-05-19T13:44:18.617Z,1.80
2023-05-19T13:47:26.206Z,1.70
2023-05-19T13:50:34.362Z,2.85
2023-05-19T13:53:42.716Z,4.82
2023-05-19T13:56:49.615Z,3.28
2023-05-19T14:00:02.517Z,1.52
2023-05-19T14:03:08.054Z,1.73
2023-05-19T14:06:13.963Z,1.73
2023-05-19T14:09:21.238Z,2.03
2023-05-19T14:12:35.387Z,1.40
2023-05-19T14:15:45.154Z,1.40
2023-05-19T14:18:50.372Z,1.42
2023-05-19T14:21:54.966Z,1.90
2023-05-19T14:25:06.682Z,1.42
2023-05-19T14:28:18.800Z,1.70
2023-05-19T14:31:30.330Z,2.42
2023-05-19T14:34:36.182Z,1.98
2023-05-19T14:37:50.881Z,2.00
2023-05-19T14:44:16.756Z,1.63
2023-05-19T14:47:31.050Z,1.77
2023-05-19T14:50:35.881Z,1.85
2023-05-19T15:00:31.627Z,1.55
2023-05-19T15:03:36.348Z,2.00
2023-05-19T15:06:41.166Z,1.80
2023-05-19T15:09:55.294Z,1.60
2023-05-19T15:13:02.487Z,1.95
2023-05-19T15:16:17.327Z,1.40
2023-05-19T15:19:22.857Z,1.90
2023-05-19T15:22:31.136Z,2.67
2023-05-19T15:25:46.957Z,1.70
2023-05-19T15:28:53.023Z,2.10
2023-05-19T15:31:59.094Z,2.28
2023-05-19T15:35:04.579Z,2.13
2023-05-19T15:38:12.019Z,2.30
2023-05-19T15:41:17.462Z,2.00
2023-05-19T15:44:24.289Z,1.92
2023-05-19T15:47:45.166Z,2.08
2023-05-19T15:50:50.880Z,2.20
2023-05-19T15:54:00.389Z,1.80
2023-05-19T15:57:08.193Z,2.30
2023-05-19T16:00:13.901Z,2.40
2023-05-19T16:03:23.566Z,1.85
2023-05-19T16:06:28.526Z,2.80
2023-05-19T16:09:33.648Z,2.65
2023-05-19T16:13:02.785Z,2.60
2023-05-19T16:20:05.682Z,2.40
2023-05-19T16:23:16.824Z,2.30
2023-05-19T16:26:22.110Z,1.52
2023-05-19T16:29:26.623Z,2.10
2023-05-19T16:32:33.954Z,1.88
2023-05-19T16:35:39.359Z,1.80
2023-05-19T16:38:43.824Z,1.45
2023-05-19T16:41:53.206Z,2.25
2023-05-19T16:44:58.258Z,1.88
2023-05-19T16:48:13.594Z,1.95
2023-05-19T17:15:08.264Z,1.98
2023-05-19T17:19:41.301Z,1.92
2023-05-19T17:24:02.313Z,1.77
2023-05-19T17:31:34.238Z,1.80
2023-05-19T17:39:13.660Z,1.92
2023-05-19T17:42:18.217Z,1.50
2023-05-19T17:45:22.482Z,1.40
2023-05-19T17:48:26.705Z,1.70
2023-05-19T17:51:32.101Z,1.48
2023-05-19T17:54:36.893Z,1.80
2023-05-19T17:57:46.030Z,2.30
2023-05-19T18:00:51.276Z,2.20
2023-05-19T18:03:56.754Z,1.88
2023-05-19T18:07:03.906Z,1.83
2023-05-19T18:10:10.233Z,1.48
2023-05-19T18:13:14.711Z,1.92
2023-05-19T18:19:23.380Z,2.30
2023-05-19T18:22:28.156Z,2.10
2023-05-19T18:25:32.507Z,2.03
2023-05-19T18:28:37.019Z,1.70
2023-05-19T18:31:42.730Z,1.52
2023-05-19T18:34:49.216Z,1.75
2023-05-19T18:37:56.484Z,1.80
2023-05-19T18:41:03.954Z,1.73
2023-05-19T18:44:08.471Z,1.85
2023-05-19T18:47:13.967Z,2.15
2023-05-19T18:50:18.351Z,1.48
2023-05-19T18:53:23.704Z,1.45
2023-05-19T18:56:31.120Z,1.95
2023-05-19T18:59:35.809Z,1.58
2023-05-19T19:02:40.947Z,2.58
2023-05-19T19:05:48.061Z,1.70
2023-05-19T19:08:55.780Z,1.65
2023-05-19T19:12:04.550Z,1.60
2023-05-19T19:15:17.120Z,1.88
2023-05-19T19:18:27.240Z,1.70
2023-05-19T19:21:37.104Z,1.60
2023-05-19T19:24:45.141Z,1.42
2023-05-19T19:27:55.151Z,1.50
2023-05-19T19:31:08.946Z,1.90
2023-05-19T19:34:18.486Z,2.03
2023-05-19T19:37:40.257Z,1.70
2023-05-19T19:41:11.517Z,1.70
2023-05-19T19:46:27.159Z,1.70
2023-05-19T20:58:14.122Z,1.80
2023-05-19T21:01:47.444Z,3.00
2023-05-19T21:14:05.691Z,1.50
2023-05-19T21:17:58.218Z,1.55
2023-05-19T21:26:23.631Z,2.03
2023-05-19T21:30:47.272Z,1.60
2023-05-19T21:40:37.126Z,1.55
2023-05-19T21:44:12.395Z,1.20
2023-05-19T21:47:52.750Z,1.73
2023-05-19T21:51:16.037Z,1.25
2023-05-19T22:09:48.986Z,1.13
2023-05-19T22:13:22.248Z,1.10
2023-05-19T22:25:36.816Z,1.00
2023-05-19T22:29:05.768Z,1.17
2023-05-19T22:37:16.827Z,1.35
2023-05-19T22:44:33.578Z,1.38
2023-05-19T22:47:52.380Z,1.27
2023-05-19T23:00:40.958Z,1.58
2023-05-19T23:03:55.732Z,1.55
2023-05-19T23:07:52.343Z,1.27
2023-05-19T23:11:20.402Z,0.90
2023-05-19T23:14:44.392Z,1.08
2023-05-19T23:18:02.040Z,1.23
2023-05-19T23:21:17.936Z,1.48
2023-05-19T23:24:39.811Z,1.50
2023-05-19T23:28:04.469Z,1.30
2023-05-19T23:35:24.956Z,1.23
2023-05-19T23:38:48.212Z,1.30
2023-05-19T23:42:01.497Z,1.20
2023-05-19T23:45:08.410Z,1.20
2023-05-19T23:48:15.066Z,1.73
2023-05-19T23:51:23.568Z,1.10
2023-05-19T23:54:31.798Z,1.50
2023-05-19T23:57:52.856Z,1.20
